Airfield :







YOU CAN JOIN US ON...

 
LOGIN :

Register | Disclaimer

   EN    FR    IT 

 









Legend :    VFR   Marginal VFR   IFR   Intensive IFR   Very Intensive IFR
Visi :
Ceiling :
>= 8 km
>= 3000ft
5 to 8 km
1000 to 3000 ft
1500m to 5 km
500 to 1000 ft
800 to 1500m
200 to 500 ft
< 800m
< 200 ft
Symbols :   Thunderstorms  Fog  Heavy snow  Heavy precipitations  Wind > 20 kt







- Airport Elevation : 119 ft
- IATA code : YPJ


CYLA - Aupaluk

CURRENT METAR :
  • 181600Z 02004KT 320V050 15SM VCSH FEW030 BKN047 02/M03 A3028 RMK CU2SC5 SLP258

EXPIRED METARs :
  • 181500Z 32004KT 15SM FEW026 BKN047 02/M03 A3028 RMK CU1SC6 SLP258
  • 181400Z 32006KT 15SM FEW020 BKN047 01/M02 A3028 RMK SC1SC6 SLP257

TAF N/A
CZUL FIR / North America



MET'MAP, your aeronautical weather chart ! - Copyright ORBIFLY December 2007 - Disclaimer

ORBIFLY MET'MAP TEAM :

Programming & Development : Alexandra Zaïnal
Concept & Development : Baudouin d'Aumeries
Co-Development & Prog : Marc-Olivier Méhu
Technical & hardware support : Manuel Goepfert

Contact : metmap@orbifly.com




SOURCES & CREDITS :

   NOAA